Tiempo atmosférico en la estación meteorológica de Olivenza, Badajoz (93 m.)



Fecha
DESCASC
Temp. máxima en grados centígrados (hora)
DESCASC
Temp. mínima en grados centígrados (hora)
DESCASC
Temp. media en grados centígrados
DESCASC
Racha de viento máxima en m/sg (hora)
DESCASC
Velocidad máxima media en intervalos de 10 minutos(hora)
DESCASC
Precipitaciones diarias en mm
DESCASC
Precipitaciones de 00:00 a 06:00 en mm
DESCASC
Precipitaciones de 06:00 a 12:00 en mm
DESCASC
Precipitaciones de 12:00 a 18:00 en mm
DESCASC
Precipitaciones de 18:00 a 24:00 en mm
DESCASC
14-12-2019 14.4 (13:00) 10.9 (09:20) 12.6 7.5 (13:00) 4.72 (13:10) 0.2 0 0.2 0 0
13-12-2019 16.9 (14:40) 11.9 (23:50) 14.4 11.11 (04:30) 6.94 (00:10) 1.6 0.2 0 0 1.4
12-12-2019 13.5 (12:30) 4.6 (01:00) 9 13.89 (13:00) 8.89 (14:30) 0 0 0 0 0
11-12-2019 14.7 (15:00) 5.5 (00:00) 10.1 8.89 (15:50) 5.28 (13:40) 0.6 0 0.6 0 0
10-12-2019 10.8 (15:20) 2.6 (00:00) 6.7 7.22 (11:50) 5 (11:50) 0 0 0 0 0
09-12-2019 16.6 (16:00) 9.1 (00:00) 12.9 4.72 (05:10) 3.61 (05:10) 0 0 0 0 0
08-12-2019 13.9 (15:40) 6.4 (00:00) 10.1 5.28 (14:00) 3.61 (14:00) 0 0 0 0 0
07-12-2019 15.3 (15:20) 4.5 (00:00) 9.9 5.28 (13:20) 4.17 (05:30) 0 0 0 0 0
06-12-2019 16 (15:40) 4.5 (00:00) 10.3 9.44 (12:00) 7.5 (11:40) 0 0 0 0 0
05-12-2019 15.4 (15:20) 5.3 (00:00) 10.3 10.56 (14:50) 7.78 (14:00) 0 0 0 0 0
04-12-2019 12.2 (16:10) 4.5 (00:00) 8.3 5.28 (15:10) 3.89 (15:10) 0 0 0 0 0
03-12-2019 13.8 (15:20) 4.7 (00:00) 9.3 10 (15:10) 8.33 (14:20) 0 0 0 0 0
02-12-2019 13.6 (15:10) 7.1 (00:00) 10.4 14.72 (12:20) 11.39 (12:20) 0.2 0 0.2 0 0
01-12-2019 14.4 (14:00) 8.4 (00:00) 11.4 11.11 (15:50) 7.22 (15:50) 7.4 0.2 2.6 1.2 3.4
30-11-2019 17.6 (13:30) 11.3 (00:00) 14.5 11.11 (15:10) 8.06 (14:20) 3.4 0 0 0 3.4
29-11-2019 17.8 (13:40) 12.8 (00:00) 15.3 7.78 (02:00) 5.56 (01:50) 0 0 0 0 0
28-11-2019 15.9 (16:30) 11 (00:00) 13.4 9.44 (14:50) 6.94 (12:30) 0 0 0 0 0
27-11-2019 17.6 (14:40) 11.4 (00:00) 14.5 11.11 (00:20) 6.39 (13:20) 0.6 0.6 0 0 0
26-11-2019 18.3 (14:20) 12.9 (00:00) 15.6 15.83 (14:40) 10.83 (14:30) 6 0.6 0.2 2.2 3
25-11-2019 19.9 (15:50) 12 (00:00) 15.9 13.89 (01:50) 9.72 (03:30) 0.8 0.6 0 0.2 0
24-11-2019 15.6 (13:40) 7 (00:00) 11.3 11.39 (22:50) 8.33 (23:10) 0 0 0 0 0
23-11-2019 15.5 (15:30) 8.4 (00:00) 11.9 17.22 (00:10) 10.56 (00:10) 0 0 0 0 0
22-11-2019 17.3 (15:50) 11.1 (00:00) 14.2 20.28 (09:30) 14.17 (10:20) 12.8 1.6 4.4 5.6 1.2
21-11-2019 15.8 (16:00) 10.2 (00:00) 13 9.17 (06:00) 6.39 (06:00) 5.2 0.2 5 0 0
20-11-2019 15 (15:10) 7.7 (00:00) 11.3 10.83 (12:50) 7.22 (12:50) 21.2 1.2 6.4 0.2 13.4
19-11-2019 12.3 (15:00) 4.9 (00:00) 8.6 4.17 (12:00) 3.06 (14:00) 0 0 0 0 0
18-11-2019 15.4 (17:10) 5.2 (00:00) 10.3 8.06 (01:30) 4.44 (02:10) 0 0 0 0 0
17-11-2019 15.6 (15:30) 7 (00:00) 11.3 11.39 (17:40) 8.06 (17:40) 4.2 0.4 0 1.8 2
16-11-2019 14.4 (16:20) 1.6 (00:00) 8 7.78 (16:10) 4.17 (17:10) 0 0 0 0 0

Gráficas

Temp. máximas Temp. mínimas Temp. medias Precipitaciones Rachas de viento máximas Velocidades máximas media en intervalos de 10 minutos

Datos horarios

Fecha y hora oficial Temperatura (ºC) Velocidad del viento (km/h) Dirección del viento Racha (km/h) Dirección de racha Precipitación (mm) Presión (hPa) Tendencia (hPa) Humedad (%)
2019-12-15 23:00:00 12.4 24 Sur 36 Sur 0 -- -- 92
2019-12-15 22:00:00 12.3 19 Sur 34 Sur 0 -- -- 94
2019-12-15 21:00:00 12.1 19 Sur 31 Sur 0.2 -- -- 96
2019-12-15 20:00:00 12.6 18 Sur 30 Sur 0 -- -- 92
2019-12-15 19:00:00 12.7 16 Sur 33 Sur 0 -- -- 91
2019-12-15 18:00:00 13.2 22 Sur 36 Sur 0 -- -- 88
2019-12-15 17:00:00 13.2 17 Sur 28 Sur 0 -- -- 90
2019-12-15 16:00:00 13.4 10 Sur 33 Sur 0 -- -- 89
2019-12-15 15:00:00 14.3 14 Sudoeste 38 Sudoeste 0 -- -- 81
2019-12-15 14:00:00 13.7 28 Sudoeste 40 Sur 0 -- -- 83
2019-12-15 13:00:00 14.3 23 Sudoeste 39 Sur 0 -- -- 78
2019-12-15 12:00:00 13.8 25 Sur 36 Sur 0 -- -- 79
2019-12-15 11:00:00 13 21 Sudoeste 30 Sur 0 -- -- 82
2019-12-15 10:00:00 11.8 13 Sudoeste 23 Sudoeste 0 -- -- 90
2019-12-15 09:00:00 11 13 Sudoeste 21 Sudoeste 0 -- -- 96
2019-12-15 08:00:00 10.9 15 Sudoeste 23 Sur 0 -- -- 97
2019-12-15 07:00:00 10.6 12 Sur 21 Sudoeste 0.2 -- -- 99
2019-12-15 06:00:00 11.1 14 Sudoeste 20 Sudoeste 0 -- -- 98
2019-12-15 05:00:00 11.4 12 Sudoeste 19 Sudoeste 0 -- -- 96
2019-12-15 04:00:00 11.6 15 Sur 21 Sur 0 -- -- 94
2019-12-15 03:00:00 11.8 13 Sudoeste 20 Sur 0 -- -- 92
2019-12-15 02:00:00 11.9 13 Sur 17 Sur 0 -- -- 93
2019-12-15 01:00:00 11.9 9 Sudoeste 14 Sudoeste 0 -- -- 93
2019-12-15 00:00:00 12 10 Sudoeste 15 Sur 0 -- -- 92
2019-12-14 23:00:00 12.2 11 Sudoeste 18 Sur 0 -- -- 91
2019-12-14 22:00:00 12.4 13 Sur 18 Sur 0 -- -- 91
2019-12-14 21:00:00 12.6 11 Sudoeste 15 Sudoeste 0 -- -- 91
2019-12-14 20:00:00 12.9 8 Sudoeste 12 Sudoeste 0 -- -- 87
2019-12-14 19:00:00 13.3 7 Sudoeste 15 Sudoeste 0 -- -- 85
2019-12-14 18:00:00 13.8 10 Sudoeste 16 Sudoeste 0 -- -- 82
2019-12-14 17:00:00 14 14 Sudoeste 18 Sudoeste 0 -- -- 82
2019-12-14 16:00:00 14.1 11 Sudoeste 18 Sudoeste 0 -- -- 80
2019-12-14 15:00:00 14.3 12 Sudoeste 20 Oeste 0 -- -- 78
2019-12-14 14:00:00 13.6 12 Oeste 25 Sudoeste 0 -- -- 83
2019-12-14 13:00:00 14.4 17 Sudoeste 27 Sudoeste 0 -- -- 80
2019-12-14 12:00:00 12.6 12 Sudoeste 21 Oeste 0 -- -- 93
2019-12-14 11:00:00 12 10 Sudoeste 21 Sudoeste 0 -- -- 94
2019-12-14 10:00:00 11.1 10 Sudoeste 17 Sudoeste 0.2 -- -- 98
2019-12-14 09:00:00 11 11 Sudoeste 16 Sudoeste 0 -- -- 96
2019-12-14 08:00:00 11.2 9 Sudoeste 16 Sudoeste 0 -- -- 94
2019-12-14 07:00:00 11.4 12 Sudoeste 18 Sudoeste 0 -- -- 91
2019-12-14 06:00:00 11 4 Sudoeste 12 Oeste 0 -- -- 96
2019-12-14 05:00:00 11 3 Oeste 14 Sudoeste 0 -- -- 97
2019-12-14 04:00:00 11.2 10 Sudoeste 20 Sudoeste 0 -- -- 96
2019-12-14 03:00:00 11.6 12 Sudoeste 18 Oeste 0 -- -- 96
2019-12-14 02:00:00 11.5 9 Sudoeste 18 Sudoeste 0 -- -- 98
2019-12-14 01:00:00 11.7 11 Sudoeste 17 Sudoeste 0 -- -- 97
2019-12-14 00:00:00 11.9 9 Oeste 18 Oeste 0 -- -- 97
2019-12-13 23:00:00 12.2 14 Oeste 22 Sudoeste 0 -- -- 97
2019-12-13 22:00:00 12.2 14 Sudoeste 21 Oeste 0 -- -- 99
2019-12-13 21:00:00 12.4 9 Oeste 21 Noroeste 0.4 -- -- 98
2019-12-13 20:00:00 12.5 6 Sudoeste 10 Sudoeste 1 -- -- 98
2019-12-13 19:00:00 13 8 Oeste 22 Oeste 0 -- -- 94
2019-12-13 18:00:00 14.1 13 Oeste 27 Oeste 0 -- -- 86
2019-12-13 17:00:00 14.8 18 Oeste 38 Noroeste 0 -- -- 82
2019-12-13 16:00:00 15.6 10 Oeste 38 Oeste 0 -- -- 78
2019-12-13 15:00:00 16.6 20 Oeste 35 Oeste 0 -- -- 74
2019-12-13 14:00:00 16 19 Oeste 35 Oeste 0 -- -- 76
2019-12-13 13:00:00 15.2 17 Noroeste 38 Noroeste 0 -- -- 81
2019-12-13 12:00:00 13.8 18 Oeste 36 Oeste 0 -- -- 93
2019-12-13 11:00:00 13.2 21 Oeste 36 Oeste 0 -- -- 93
2019-12-13 10:00:00 12.9 22 Oeste 36 Oeste 0 -- -- 92
2019-12-13 09:00:00 12.3 15 Sudoeste 31 Oeste 0 -- -- 93
2019-12-13 08:00:00 12.4 17 Oeste 29 Oeste 0 -- -- 92
2019-12-13 07:00:00 12.3 17 Oeste 31 Oeste 0 -- -- 93
2019-12-13 06:00:00 12.5 18 Oeste 32 Oeste 0 -- -- 91
2019-12-13 05:00:00 12.7 22 Oeste 40 Oeste 0 -- -- 93
2019-12-13 04:00:00 12.5 19 Oeste 34 Oeste 0 -- -- 96
2019-12-13 03:00:00 12.9 17 Oeste 31 Sudoeste 0 -- -- 98
2019-12-13 02:00:00 12.8 17 Oeste 34 Oeste 0.2 -- -- 100
2019-12-13 01:00:00 12.5 19 Sudoeste 35 Oeste 0 -- -- 100
2019-12-13 00:00:00 12.3 23 Sudoeste 38 Sudoeste 0 -- -- 100
2019-12-12 23:00:00 12 24 Sudoeste 36 Sudoeste 0 -- -- 100
2019-12-12 22:00:00 11.8 20 Sudoeste 36 Sudoeste 0 -- -- 100
2019-12-12 21:00:00 11.5 25 Sudoeste 37 Oeste 0 -- -- 99
2019-12-12 20:00:00 11.2 27 Sudoeste 42 Sudoeste 0 -- -- 98
2019-12-12 19:00:00 11.1 28 Sudoeste 42 Sudoeste 0 -- -- 97
2019-12-12 18:00:00 11.7 26 Sudoeste 46 Oeste 0 -- -- 91
2019-12-12 17:00:00 12.3 27 Oeste 41 Oeste 0 -- -- 84
2019-12-12 16:00:00 13.1 26 Oeste 43 Oeste 0 -- -- 79
2019-12-12 15:00:00 13.2 26 Oeste 45 Oeste 0 -- -- 78
2019-12-12 14:00:00 13.1 27 Oeste 50 Oeste 0 -- -- 77
2019-12-12 13:00:00 13.3 26 Oeste 50 Oeste 0 -- -- 74
2019-12-12 12:00:00 12.3 19 Sudoeste 30 Sudoeste 0 -- -- 82
2019-12-12 11:00:00 10.2 15 Sudoeste 26 Sudoeste 0 -- -- 90
2019-12-12 10:00:00 8.2 14 Sudoeste 22 Sudoeste 0 -- -- 95
2019-12-12 09:00:00 7.4 14 Sudoeste 21 Sudoeste 0 -- -- 96
2019-12-12 08:00:00 7.1 11 Sudoeste 21 Sudoeste 0 -- -- 95
2019-12-12 07:00:00 7.1 14 Sudoeste 21 Sudoeste 0 -- -- 94
2019-12-12 06:00:00 7.2 8 Sudoeste 14 Sudoeste 0 -- -- 93
2019-12-12 05:00:00 6.9 9 Sudoeste 15 Sudoeste 0 -- -- 93
2019-12-12 04:00:00 6.7 9 Sudoeste 14 Sudoeste 0 -- -- 91
2019-12-12 03:00:00 5.7 7 Oeste 9 Oeste 0 -- -- 92
2019-12-12 02:00:00 5.3 6 Oeste 18 Oeste 0 -- -- 92
2019-12-12 01:00:00 4.6 9 Oeste 17 Oeste 0 -- -- 91
2019-12-12 00:00:00 5.5 10 Oeste 17 Oeste 0 -- -- 88
2019-12-11 23:00:00 5.8 7 Oeste 11 Oeste 0 -- -- 84
2019-12-11 22:00:00 6.8 3 Sudoeste 23 Noroeste 0 -- -- 78
2019-12-11 21:00:00 8.2 16 Noroeste 26 Noroeste 0 -- -- 72
2019-12-11 20:00:00 8.5 14 Noroeste 24 Noroeste 0 -- -- 76
2019-12-11 19:00:00 9.7 14 Noroeste 23 Noroeste 0 -- -- 71
2019-12-11 18:00:00 11.9 11 Noroeste 23 Noroeste 0 -- -- 58
2019-12-11 17:00:00 13.8 11 Noroeste 24 Norte 0 -- -- 58
2019-12-11 16:00:00 14.4 15 Noroeste 32 Norte 0 -- -- 59
2019-12-11 15:00:00 14.7 16 Noroeste 30 Noroeste 0 -- -- 62
2019-12-11 14:00:00 13.8 14 Noroeste 30 Noroeste 0 -- -- 71
2019-12-11 13:00:00 12.6 13 Noroeste 23 Noroeste 0 -- -- 88
2019-12-11 12:00:00 9.8 11 Oeste 26 Sudoeste 0 -- -- 100
2019-12-11 11:00:00 9.2 17 Sudoeste 27 Sudoeste 0.2 -- -- 100
2019-12-11 10:00:00 8.3 11 Sudoeste 23 Sudoeste 0.4 -- -- 100
2019-12-11 09:00:00 7.1 14 Sudoeste 22 Sudoeste 0 -- -- 99
2019-12-11 08:00:00 7.2 10 Sudoeste 20 Sur 0 -- -- 99
2019-12-11 07:00:00 6.5 9 Sudoeste 17 Sudoeste 0 -- -- 99
2019-12-11 06:00:00 6.4 9 Oeste 11 Sudoeste 0 -- -- 99
2019-12-11 05:00:00 6.5 4 Sudoeste 7 Sur 0 -- -- 96
2019-12-11 04:00:00 7.2 5 Sudoeste 10 Sudoeste 0 -- -- 98
2019-12-11 03:00:00 7.2 6 Oeste 11 Sudoeste 0 -- -- 99
2019-12-11 02:00:00 6.7 7 Sudoeste 8 Sudoeste 0 -- -- 100
2019-12-11 01:00:00 6.1 4 Sudoeste 7 Oeste 0 -- -- 98
2019-12-11 00:00:00 6.8 3 Sur 6 Sur 0 -- -- 98
2019-12-10 23:00:00 7.5 3 Sur 7 Sudeste 0 -- -- 98
2019-12-10 22:00:00 7.6 8 Sudeste 10 Este 0 -- -- 97
2019-12-10 21:00:00 7.8 4 Nordeste 8 Norte 0 -- -- 97
2019-12-10 20:00:00 7.5 6 Nordeste 9 Nordeste 0 -- -- 96
2019-12-10 19:00:00 8.1 3 Nordeste 12 Este 0 -- -- 94
2019-12-10 18:00:00 9.2 12 Este 14 Este 0 -- -- 90
2019-12-10 17:00:00 10.4 10 Este 15 Nordeste 0 -- -- 86
2019-12-10 16:00:00 10.6 11 Nordeste 16 Nordeste 0 -- -- 86
2019-12-10 15:00:00 10.4 13 Nordeste 19 Este 0 -- -- 89
2019-12-10 14:00:00 9.3 14 Nordeste 21 Nordeste 0 -- -- 98
2019-12-10 13:00:00 8.5 16 Este 24 Este 0 -- -- 100
2019-12-10 12:00:00 7.9 17 Este 26 Este 0 -- -- 100
2019-12-10 11:00:00 5.8 11 Este 14 Este 0 -- -- 100
2019-12-10 10:00:00 4.3 11 Nordeste 19 Nordeste 0 -- -- 100
2019-12-10 09:00:00 2.9 14 Nordeste 17 Nordeste 0 -- -- 99
2019-12-10 08:00:00 3.3 10 Nordeste 15 Nordeste 0 -- -- 99
2019-12-10 07:00:00 2.6 6 Nordeste 12 Nordeste 0 -- -- 99
2019-12-10 06:00:00 3.8 5 Nordeste 10 Este 0 -- -- 97
2019-12-10 05:00:00 4.9 12 Este 13 Este 0 -- -- 96
2019-12-10 04:00:00 5.7 8 Este 10 Este 0 -- -- 96
2019-12-10 03:00:00 7.1 8 Este 10 Este 0 -- -- 95
2019-12-10 02:00:00 7.9 10 Nordeste 11 Nordeste 0 -- -- 91
2019-12-10 01:00:00 8.6 8 Este 9 Este 0 -- -- 86
2019-12-10 00:00:00 9.1 4 Este 7 Sudeste 0 -- -- 84
2019-12-09 23:00:00 9.6 4 Sudeste 8 Sudeste 0 -- -- 81
2019-12-09 22:00:00 10.2 4 Sur 6 Sur 0 -- -- 80
2019-12-09 21:00:00 10.9 4 Este 8 Nordeste 0 -- -- 81
2019-12-09 20:00:00 11.6 4 Nordeste 7 Nordeste 0 -- -- 76
2019-12-09 19:00:00 13.2 3 Este 7 Sudeste 0 -- -- 72
2019-12-09 18:00:00 14.2 4 Nordeste 10 Nordeste 0 -- -- 68
2019-12-09 17:00:00 16 7 Nordeste 12 Nordeste 0 -- -- 65
2019-12-09 16:00:00 16.6 3 Norte 12 Norte 0 -- -- 60
2019-12-09 15:00:00 16.2 7 Norte 14 Norte 0 -- -- 66
2019-12-09 14:00:00 15.7 4 Nordeste 11 Norte 0 -- -- 71
2019-12-09 13:00:00 15 5 Nordeste 10 Noroeste 0 -- -- 80
2019-12-09 12:00:00 13.9 3 Nordeste 7 Norte 0 -- -- 87
2019-12-09 11:00:00 12.7 5 Este 9 Este 0 -- -- 100
2019-12-09 10:00:00 11.8 5 Este 9 Este 0 -- -- 100
2019-12-09 09:00:00 10.7 7 Este 9 Este 0 -- -- 100
2019-12-09 08:00:00 10.3 8 Este 10 Este 0 -- -- 100
2019-12-09 07:00:00 11.6 6 Nordeste 16 Norte 0 -- -- 100
2019-12-09 06:00:00 12.3 12 Norte 17 Norte 0 -- -- 100
2019-12-09 05:00:00 12.5 12 Norte 15 Norte 0 -- -- 100
2019-12-09 04:00:00 13.1 5 Sudoeste 10 Sudoeste 0 -- -- 100
2019-12-09 03:00:00 13.1 6 Sudoeste 9 Sudoeste 0 -- -- 100
2019-12-09 02:00:00 13.1 7 Sudoeste 12 Sudoeste 0 -- -- 100
2019-12-09 01:00:00 13 4 Sudoeste 10 Sur 0 -- -- 100
2019-12-09 00:00:00 12.8 4 Sudoeste 13 Sudoeste 0 -- -- 99
2019-12-08 23:00:00 12.8 8 Sudoeste 14 Sudoeste 0 -- -- 99
2019-12-08 22:00:00 12.7 11 Sudoeste 15 Sudoeste 0 -- -- 98
2019-12-08 21:00:00 12.9 9 Sudoeste 12 Sudoeste 0 -- -- 97
2019-12-08 20:00:00 13.1 7 Sudoeste 12 Sudoeste 0 -- -- 94
2019-12-08 19:00:00 12.9 6 Sudoeste 9 Sur 0 -- -- 94
2019-12-08 18:00:00 13.1 6 Sudoeste 12 Sudoeste 0 -- -- 93
2019-12-08 17:00:00 13.6 8 Sudoeste 12 Sudoeste 0 -- -- 90
2019-12-08 16:00:00 13.8 6 Oeste 13 Oeste 0 -- -- 87
2019-12-08 15:00:00 13.4 9 Oeste 18 Oeste 0 -- -- 86
2019-12-08 14:00:00 13.2 13 Sudoeste 19 Sudoeste 0 -- -- 85
2019-12-08 13:00:00 11.8 9 Sudoeste 14 Oeste 0 -- -- 90
2019-12-08 12:00:00 10.5 8 Oeste 12 Oeste 0 -- -- 94
2019-12-08 11:00:00 9.1 5 Oeste 11 Sudoeste 0 -- -- 97
2019-12-08 10:00:00 7.6 7 Oeste 12 Oeste 0 -- -- 99
2019-12-08 09:00:00 6.4 6 Oeste 8 Oeste 0 -- -- 98
2019-12-08 08:00:00 6.6 5 Sur 7 Oeste 0 -- -- 98
2019-12-08 07:00:00 7 5 Sur 6 Sur 0 -- -- 98
2019-12-08 06:00:00 6.8 4 Sudoeste 6 Oeste 0 -- -- 96
2019-12-08 05:00:00 7.3 4 Sur 8 Sudeste 0 -- -- 95
2019-12-08 04:00:00 7.6 3 Sur 6 Sudeste 0 -- -- 95
2019-12-08 03:00:00 7.8 3 Sudoeste 8 Oeste 0 -- -- 94
2019-12-08 02:00:00 8.4 4 Oeste 6 Sudoeste 0 -- -- 92
2019-12-08 01:00:00 8.4 4 Sudoeste 6 Sudoeste 0 -- -- 92
2019-12-08 00:00:00 9.2 4 Sudoeste 6 Sudoeste 0 -- -- 89
2019-12-07 23:00:00 9.6 3 Sudoeste 4 Sudoeste 0 -- -- 87
2019-12-07 22:00:00 10 3 Sudoeste 7 Sur 0 -- -- 85
2019-12-07 21:00:00 11.3 6 Sudeste 9 Sudeste 0 -- -- 80
2019-12-07 20:00:00 11.4 7 Sudeste 8 Sudeste 0 -- -- 79
2019-12-07 19:00:00 12.5 8 Sudeste 9 Sudeste 0 -- -- 73
2019-12-07 18:00:00 13.2 5 Este 11 Este 0 -- -- 72
2019-12-07 17:00:00 14.4 10 Nordeste 13 Nordeste 0 -- -- 69
2019-12-07 16:00:00 14.9 9 Nordeste 17 Nordeste 0 -- -- 67
2019-12-07 15:00:00 15 10 Nordeste 17 Este 0 -- -- 68
2019-12-07 14:00:00 14.5 11 Este 19 Nordeste 0 -- -- 70
2019-12-07 13:00:00 12.7 11 Nordeste 18 Este 0 -- -- 79
2019-12-07 12:00:00 11.5 13 Nordeste 17 Nordeste 0 -- -- 85
2019-12-07 11:00:00 9 12 Nordeste 14 Nordeste 0 -- -- 92
2019-12-07 10:00:00 7.1 9 Este 13 Este 0 -- -- 99
2019-12-07 09:00:00 4.8 6 Nordeste 12 Nordeste 0 -- -- 99
2019-12-07 08:00:00 5.1 8 Nordeste 9 Nordeste 0 -- -- 98
2019-12-07 07:00:00 5.5 5 Nordeste 10 Este 0 -- -- 98
2019-12-07 06:00:00 5.2 8 Este 17 Este 0 -- -- 97
2019-12-07 05:00:00 5.6 13 Este 16 Este 0 -- -- 97
2019-12-07 04:00:00 5.7 12 Nordeste 14 Nordeste 0 -- -- 96
2019-12-07 03:00:00 6.3 13 Nordeste 13 Nordeste 0 -- -- 92
2019-12-07 02:00:00 7.2 10 Este 15 Este 0 -- -- 92
2019-12-07 01:00:00 7.8 12 Este 13 Este 0 -- -- 92
2019-12-07 00:00:00 8 10 Nordeste 21 Norte 0 -- -- 88
2019-12-06 23:00:00 8.7 12 Norte 15 Norte 0 -- -- 88
2019-12-06 22:00:00 9.6 6 Norte 8 Norte 0 -- -- 83
2019-12-06 21:00:00 10.2 5 Nordeste 13 Este 0 -- -- 81
2019-12-06 20:00:00 10.8 7 Nordeste 9 Nordeste 0 -- -- 80
2019-12-06 19:00:00 12 6 Nordeste 8 Nordeste 0 -- -- 75
2019-12-06 18:00:00 13.3 9 Nordeste 21 Nordeste 0 -- -- 71
2019-12-06 17:00:00 15.5 16 Nordeste 28 Nordeste 0 -- -- 62
2019-12-06 16:00:00 16 17 Nordeste 27 Nordeste 0 -- -- 62
2019-12-06 15:00:00 15.6 18 Nordeste 29 Nordeste 0 -- -- 64
2019-12-06 14:00:00 14.8 23 Nordeste 31 Nordeste 0 -- -- 69
2019-12-06 13:00:00 13.6 21 Nordeste 33 Este 0 -- -- 74
2019-12-06 12:00:00 12.3 26 Este 34 Este 0 -- -- 79
2019-12-06 11:00:00 10.2 18 Nordeste 24 Nordeste 0 -- -- 90
2019-12-06 10:00:00 7.3 18 Este 22 Este 0 -- -- 97
2019-12-06 09:00:00 4.9 14 Nordeste 18 Nordeste 0 -- -- 99
2019-12-06 08:00:00 5.2 13 Nordeste 21 Este 0 -- -- 96
2019-12-06 07:00:00 5.6 18 Este 21 Este 0 -- -- 96
2019-12-06 06:00:00 5.6 13 Nordeste 14 Nordeste 0 -- -- 96
2019-12-06 05:00:00 6.1 15 Nordeste 24 Nordeste 0 -- -- 95
2019-12-06 04:00:00 6.1 21 Nordeste 27 Nordeste 0 -- -- 95
2019-12-06 03:00:00 6.5 17 Nordeste 25 Norte 0 -- -- 93
2019-12-06 02:00:00 7.3 17 Nordeste 24 Nordeste 0 -- -- 91
2019-12-06 01:00:00 7.8 9 Este 15 Este 0 -- -- 90
2019-12-06 00:00:00 7.5 14 Nordeste 20 Nordeste 0 -- -- 91
2019-12-05 23:00:00 8.8 14 Nordeste 21 Nordeste 0 -- -- 85
2019-12-05 22:00:00 9.4 15 Nordeste 19 Nordeste 0 -- -- 84
2019-12-05 21:00:00 9.7 14 Nordeste 19 Nordeste 0 -- -- 84
2019-12-05 20:00:00 10.7 14 Nordeste 22 Nordeste 0 -- -- 79
2019-12-05 19:00:00 13 17 Nordeste 25 Nordeste 0 -- -- 70
2019-12-05 18:00:00 13.5 18 Este 30 Nordeste 0 -- -- 67
2019-12-05 17:00:00 14.9 24 Nordeste 33 Este 0 -- -- 62
2019-12-05 16:00:00 15.3 24 Nordeste 36 Nordeste 0 -- -- 62
2019-12-05 15:00:00 15.2 26 Nordeste 38 Este 0 -- -- 63
2019-12-05 14:00:00 14.5 28 Nordeste 36 Nordeste 0 -- -- 64
2019-12-05 13:00:00 13.5 22 Nordeste 29 Nordeste 0 -- -- 68
2019-12-05 12:00:00 11.7 16 Nordeste 25 Nordeste 0 -- -- 76
2019-12-05 11:00:00 9.9 20 Nordeste 24 Nordeste 0 -- -- 80
2019-12-05 10:00:00 8.4 15 Nordeste 19 Nordeste 0 -- -- 86
2019-12-05 09:00:00 6.4 13 Nordeste 15 Nordeste 0 -- -- 92
2019-12-05 08:00:00 6.3 12 Nordeste 14 Nordeste 0 -- -- 92
2019-12-05 07:00:00 6.3 9 Nordeste 12 Este 0 -- -- 95
2019-12-05 06:00:00 5.8 10 Nordeste 13 Nordeste 0 -- -- 95
2019-12-05 05:00:00 5.7 12 Nordeste 15 Nordeste 0 -- -- 94
2019-12-05 04:00:00 6.7 7 Nordeste 10 Nordeste 0 -- -- 92
2019-12-05 03:00:00 7.1 9 Nordeste 15 Nordeste 0 -- -- 91
2019-12-05 02:00:00 8.7 14 Nordeste 18 Norte 0 -- -- 86
2019-12-05 01:00:00 10.1 12 Norte 17 Norte 0 -- -- 82
2019-12-05 00:00:00 9.8 6 Norte 12 Nordeste 0 -- -- 88
2019-12-04 23:00:00 9.8 7 Nordeste 16 Nordeste 0 -- -- 89
2019-12-04 22:00:00 10.2 13 Nordeste 17 Nordeste 0 -- -- 84
2019-12-04 21:00:00 9.9 8 Norte 11 Norte 0 -- -- 86
2019-12-04 20:00:00 10.3 6 Norte 8 Norte 0 -- -- 82
2019-12-04 19:00:00 11.1 6 Norte 11 Nordeste 0 -- -- 80
2019-12-04 18:00:00 11.5 7 Nordeste 10 Nordeste 0 -- -- 79
2019-12-04 17:00:00 11.6 5 Nordeste 17 Nordeste 0 -- -- 76
2019-12-04 16:00:00 12.1 11 Nordeste 19 Nordeste 0 -- -- 75
2019-12-04 15:00:00 12.1 12 Nordeste 18 Norte 0 -- -- 76
2019-12-04 14:00:00 10.9 5 Norte 11 Noroeste 0 -- -- 76
2019-12-04 13:00:00 10.2 5 Norte 8 Norte 0 -- -- 82
2019-12-04 12:00:00 9.4 4 Nordeste 12 Nordeste 0 -- -- 88
2019-12-04 11:00:00 8.2 4 Norte 8 Norte 0 -- -- 92
2019-12-04 10:00:00 6 4 Nordeste 13 Nordeste 0 -- -- 95
2019-12-04 09:00:00 4.9 8 Sudeste 10 Este 0 -- -- 98
2019-12-04 08:00:00 4.8 9 Este 14 Este 0 -- -- 96
2019-12-04 07:00:00 5.8 5 Este 8 Este 0 -- -- 97
2019-12-04 06:00:00 5.1 2 Nordeste 12 Nordeste 0 -- -- 97
2019-12-04 05:00:00 4.7 12 Nordeste 13 Nordeste 0 -- -- 96
2019-12-04 04:00:00 5.3 8 Nordeste 10 Este 0 -- -- 94
2019-12-04 03:00:00 5.9 5 Este 10 Este 0 -- -- 93
2019-12-04 02:00:00 6.7 4 Este 7 Este 0 -- -- 91
2019-12-04 01:00:00 6.6 4 Nordeste 7 Nordeste 0 -- -- 90
2019-12-04 00:00:00 6.4 3 Nordeste 14 Nordeste 0 -- -- 90
2019-12-03 23:00:00 6.8 13 Nordeste 17 Norte 0 -- -- 88
2019-12-03 22:00:00 8.1 15 Nordeste 20 Norte 0 -- -- 82
2019-12-03 21:00:00 8.7 14 Norte 18 Norte 0 -- -- 81
2019-12-03 20:00:00 9.3 12 Norte 23 Norte 0 -- -- 80
2019-12-03 19:00:00 10.7 19 Norte 24 Nordeste 0 -- -- 74
2019-12-03 18:00:00 11.8 15 Norte 27 Norte 0 -- -- 70
2019-12-03 17:00:00 13.2 20 Norte 30 Nordeste 0 -- -- 64
2019-12-03 16:00:00 13.7 25 Nordeste 36 Nordeste 0 -- -- 64
2019-12-03 15:00:00 13.5 27 Norte 35 Nordeste 0 -- -- 65
2019-12-03 14:00:00 13 27 Nordeste 33 Nordeste 0 -- -- 67
2019-12-03 13:00:00 12.3 22 Nordeste 28 Nordeste 0 -- -- 68
2019-12-03 12:00:00 11.2 17 Nordeste 31 Nordeste 0 -- -- 72
2019-12-03 11:00:00 9.4 27 Nordeste 32 Nordeste 0 -- -- 77
2019-12-03 10:00:00 7.5 21 Nordeste 29 Nordeste 0 -- -- 85
2019-12-03 09:00:00 5.3 12 Nordeste 20 Nordeste 0 -- -- 92
2019-12-03 08:00:00 5 15 Nordeste 26 Nordeste 0 -- -- 92
2019-12-03 07:00:00 4.9 15 Nordeste 20 Norte 0 -- -- 94
2019-12-03 06:00:00 5.6 15 Nordeste 21 Nordeste 0 -- -- 91
2019-12-03 05:00:00 5.8 18 Nordeste 24 Nordeste 0 -- -- 91
2019-12-03 04:00:00 6.4 21 Nordeste 24 Nordeste 0 -- -- 91
2019-12-03 03:00:00 7.1 20 Nordeste 25 Nordeste 0 -- -- 88
2019-12-03 02:00:00 7.8 18 Norte 23 Norte 0 -- -- 86
2019-12-03 01:00:00 7 15 Nordeste 17 Nordeste 0 -- -- 88
2019-12-03 00:00:00 8.2 15 Nordeste 19 Nordeste 0 -- -- 86
2019-12-02 23:00:00 8.4 8 Nordeste 14 Nordeste 0 -- -- 85
2019-12-02 22:00:00 9.5 12 Nordeste 22 Nordeste 0 -- -- 81
2019-12-02 21:00:00 11.2 19 Nordeste 32 Este 0 -- -- 76
2019-12-02 20:00:00 11.9 26 Nordeste 36 Nordeste 0 -- -- 72
2019-12-02 19:00:00 12.2 29 Nordeste 45 Nordeste 0 -- -- 71
2019-12-02 18:00:00 12.3 20 Nordeste 37 Nordeste 0 -- -- 72
2019-12-02 17:00:00 13.2 23 Nordeste 46 Nordeste 0 -- -- 67
2019-12-02 16:00:00 12.7 32 Nordeste 52 Este 0 -- -- 70
2019-12-02 15:00:00 13.4 28 Nordeste 46 Nordeste 0 -- -- 73
2019-12-02 14:00:00 12.8 33 Nordeste 49 Este 0 -- -- 73
2019-12-02 13:00:00 12.5 37 Nordeste 53 Nordeste 0 -- -- 74
2019-12-02 12:00:00 11.7 35 Nordeste 48 Nordeste 0 -- -- 78
2019-12-02 11:00:00 10.4 26 Nordeste 35 Nordeste 0.2 -- -- 87
2019-12-02 10:00:00 9.6 26 Nordeste 36 Nordeste 0 -- -- 91
2019-12-02 09:00:00 8.8 24 Nordeste 30 Nordeste 0 -- -- 95
2019-12-02 08:00:00 8.3 18 Nordeste 24 Nordeste 0 -- -- 97
2019-12-02 07:00:00 8.3 18 Nordeste 26 Nordeste 0 -- -- 96
2019-12-02 06:00:00 8.1 21 Nordeste 31 Nordeste 0 -- -- 97
2019-12-02 05:00:00 8 19 Nordeste 23 Nordeste 0 -- -- 99
2019-12-02 04:00:00 7.1 13 Nordeste 17 Nordeste 0 -- -- 99
2019-12-02 03:00:00 7.2 10 Nordeste 14 Nordeste 0 -- -- 99
2019-12-02 02:00:00 7.5 11 Nordeste 15 Nordeste 0 -- -- 99
2019-12-02 01:00:00 7.5 6 Nordeste 12 Norte 0 -- -- 98
2019-12-02 00:00:00 8.4 8 Nordeste 23 Norte 0 -- -- 97
2019-12-01 23:00:00 8.9 15 Norte 23 Norte 0 -- -- 98
2019-12-01 22:00:00 9.3 14 Norte 26 Norte 0 -- -- 98
2019-12-01 21:00:00 10.5 18 Nordeste 25 Nordeste 0 -- -- 98
2019-12-01 20:00:00 10.5 4 Noroeste 18 Noroeste 0.4 -- -- 99
2019-12-01 19:00:00 10.7 6 Noroeste 22 Oeste 3 -- -- 98
2019-12-01 18:00:00 11.2 7 Sudoeste 22 Sudoeste 0.2 -- -- 97
2019-12-01 17:00:00 11.9 18 Sudoeste 32 Oeste 0 -- -- 91
2019-12-01 16:00:00 13.2 22 Sudoeste 40 Sudoeste 0.6 -- -- 85
2019-12-01 15:00:00 12.6 16 Sudoeste 32 Sudoeste 0.2 -- -- 85
2019-12-01 14:00:00 14.4 20 Sudoeste 32 Sudoeste 0 -- -- 77
2019-12-01 13:00:00 13.5 18 Oeste 26 Sudoeste 0.2 -- -- 82
2019-12-01 12:00:00 12.7 17 Sudoeste 24 Sudoeste 0.2 -- -- 95
2019-12-01 11:00:00 11.2 15 Sudoeste 27 Oeste 0.6 -- -- 97
2019-12-01 10:00:00 10.9 18 Sudoeste 33 Sudoeste 1.6 -- -- 98
2019-12-01 09:00:00 10.8 22 Sudoeste 36 Sudoeste 0 -- -- 96
2019-12-01 08:00:00 10.7 19 Sudoeste 29 Sudoeste 0 -- -- 96
2019-12-01 07:00:00 10.5 20 Sudoeste 39 Sudoeste 0.2 -- -- 97
2019-12-01 06:00:00 11 21 Sudoeste 35 Sudoeste 0 -- -- 98
2019-12-01 05:00:00 10.9 21 Sudoeste 29 Sudoeste 0 -- -- 98
2019-12-01 04:00:00 10.8 16 Sudoeste 28 Sudoeste 0.2 -- -- 99
2019-12-01 03:00:00 10.9 13 Sudoeste 21 Sudoeste 0 -- -- 99
2019-12-01 02:00:00 10.7 14 Sudoeste 24 Sudoeste 0 -- -- 99
2019-12-01 01:00:00 11.1 15 Sudoeste 23 Sudoeste 0 -- -- 99
2019-12-01 00:00:00 11.3 12 Sudoeste 20 Sudoeste 0 -- -- 98
2019-11-30 23:00:00 11.6 13 Sudoeste 21 Sudoeste 0 -- -- 97
2019-11-30 22:00:00 11.9 10 Sudoeste 19 Sudoeste 0 -- -- 97
2019-11-30 21:00:00 12.6 13 Sudoeste 17 Sudoeste 0 -- -- 98
2019-11-30 20:00:00 12.5 10 Sudoeste 25 Noroeste 0.2 -- -- 98
2019-11-30 19:00:00 12.8 18 Oeste 33 Noroeste 3.2 -- -- 96
2019-11-30 18:00:00 14.6 18 Sudoeste 30 Sudoeste 0 -- -- 94
2019-11-30 17:00:00 14.5 23 Oeste 38 Sudoeste 0 -- -- 94
2019-11-30 16:00:00 16.5 26 Sudoeste 40 Sur 0 -- -- 75
2019-11-30 15:00:00 16.9 24 Sudoeste 40 Sudoeste 0 -- -- 73
2019-11-30 14:00:00 16.9 27 Sudoeste 39 Sudoeste 0 -- -- 76
2019-11-30 13:00:00 16.4 22 Sudoeste 33 Sudoeste 0 -- -- 79
2019-11-30 12:00:00 15.5 17 Sudoeste 28 Sudoeste 0 -- -- 85
2019-11-30 11:00:00 14.5 18 Sudoeste 27 Sur 0 -- -- 89
2019-11-30 10:00:00 13.6 17 Sur 26 Sur 0 -- -- 92
2019-11-30 09:00:00 12.7 14 Sudoeste 26 Sudoeste 0 -- -- 95
2019-11-30 08:00:00 12.9 14 Sudoeste 21 Sudoeste 0 -- -- 95
2019-11-30 07:00:00 13.3 10 Sudoeste 15 Sur 0 -- -- 96
2019-11-30 06:00:00 13.1 4 Sur 10 Sur 0 -- -- 96
2019-11-30 05:00:00 13.2 5 Sudoeste 9 Sudoeste 0 -- -- 93
2019-11-30 04:00:00 13.4 6 Sudoeste 12 Sudoeste 0 -- -- 92
2019-11-30 03:00:00 13.8 8 Sudoeste 17 Sudoeste 0 -- -- 91
2019-11-30 02:00:00 14.3 11 Sudoeste 16 Sur 0 -- -- 90
2019-11-30 01:00:00 14.7 5 Sur 10 Oeste 0 -- -- 89
2019-11-30 00:00:00 15 7 Sudoeste 10 Sudoeste 0 -- -- 87
2019-11-29 23:00:00 15.1 6 Sudoeste 9 Sudoeste 0 -- -- 84
2019-11-29 22:00:00 15.3 7 Sudoeste 14 Sudoeste 0 -- -- 81
2019-11-29 21:00:00 15.5 8 Sudoeste 15 Sudoeste 0 -- -- 81
2019-11-29 20:00:00 15.8 12 Sudoeste 17 Sudoeste 0 -- -- 79
2019-11-29 19:00:00 15.9 11 Sudoeste 14 Sudoeste 0 -- -- 79
2019-11-29 18:00:00 16.6 10 Sudoeste 19 Sudoeste 0 -- -- 75
2019-11-29 17:00:00 17.3 12 Sudoeste 22 Sudoeste 0 -- -- 73
2019-11-29 16:00:00 17.1 13 Sudoeste 21 Sudoeste 0 -- -- 73
2019-11-29 15:00:00 17.1 15 Sudoeste 21 Sudoeste 0 -- -- 76
2019-11-29 14:00:00 17.4 14 Sudoeste 26 Oeste 0 -- -- 75
2019-11-29 13:00:00 17.2 12 Sudoeste 23 Oeste 0 -- -- 77
2019-11-29 12:00:00 16.6 12 Sudoeste 24 Sudoeste 0 -- -- 82
2019-11-29 11:00:00 15.4 15 Sudoeste 23 Sur 0 -- -- 89
2019-11-29 10:00:00 14.1 13 Sudoeste 19 Sudoeste 0 -- -- 96
2019-11-29 09:00:00 13.5 12 Sur 20 Sudoeste 0 -- -- 98
2019-11-29 08:00:00 13.6 12 Sudoeste 23 Sur 0 -- -- 98
2019-11-29 07:00:00 13.3 13 Sudoeste 21 Sur 0 -- -- 99
2019-11-29 06:00:00 13.2 15 Sudoeste 23 Sur 0 -- -- 99
2019-11-29 05:00:00 13.1 15 Sudoeste 24 Sudoeste 0 -- -- 99
2019-11-29 04:00:00 12.9 15 Sudoeste 23 Sudoeste 0 -- -- 99
2019-11-29 03:00:00 12.8 17 Sudoeste 27 Sudoeste 0 -- -- 99
2019-11-29 02:00:00 13 20 Sudoeste 28 Sudoeste 0 -- -- 98
2019-11-29 01:00:00 13 19 Sudoeste 27 Sudoeste 0 -- -- 97
2019-11-29 00:00:00 13.1 19 Sudoeste 30 Sur 0 -- -- 96
2019-11-28 23:00:00 13.4 15 Sudoeste 22 Sudoeste 0 -- -- 94
2019-11-28 22:00:00 13.8 14 Sudoeste 21 Sudoeste 0 -- -- 92
2019-11-28 21:00:00 14.2 12 Sudoeste 22 Sudoeste 0 -- -- 91
2019-11-28 20:00:00 14.5 14 Sudoeste 21 Sudoeste 0 -- -- 89
2019-11-28 19:00:00 14.7 14 Sudoeste 21 Sudoeste 0 -- -- 85
2019-11-28 18:00:00 15.6 14 Sudoeste 25 Sudoeste 0 -- -- 81
2019-11-28 17:00:00 15.8 15 Sudoeste 27 Sudoeste 0 -- -- 81
2019-11-28 16:00:00 15.7 14 Sudoeste 30 Sudoeste 0 -- -- 81
2019-11-28 15:00:00 15.6 19 Sudoeste 34 Sudoeste 0 -- -- 83
2019-11-28 14:00:00 15.4 19 Sudoeste 33 Sudoeste 0 -- -- 82
2019-11-28 13:00:00 15.6 20 Sudoeste 34 Sudoeste 0 -- -- 84
2019-11-28 12:00:00 14.7 21 Sudoeste 31 Sudoeste 0 -- -- 85
2019-11-28 11:00:00 13.6 18 Sur 28 Sudoeste 0 -- -- 92
2019-11-28 10:00:00 12.6 15 Sudoeste 25 Sudoeste 0 -- -- 96
2019-11-28 09:00:00 11.9 10 Sudoeste 18 Sudoeste 0 -- -- 100
2019-11-28 08:00:00 11.5 0 Calma 10 Sudeste 0 -- -- 100
2019-11-28 07:00:00 11.5 4 Sudeste 15 Sur 0 -- -- 100
2019-11-28 06:00:00 11.1 11 Sudoeste 26 Oeste 0 -- -- 100
2019-11-28 05:00:00 11.2 16 Sudoeste 27 Sudoeste 0 -- -- 99
2019-11-28 04:00:00 11.3 11 Sudoeste 15 Sudoeste 0 -- -- 98
2019-11-28 03:00:00 11.2 4 Oeste 18 Sudoeste 0 -- -- 97
2019-11-28 02:00:00 11.6 10 Sudoeste 18 Sudoeste 0 -- -- 96
2019-11-28 01:00:00 11.4 11 Sudoeste 17 Sudoeste 0 -- -- 95
2019-11-28 00:00:00 11.5 10 Sudoeste 15 Sudoeste 0 -- -- 92
2019-11-27 23:00:00 12 11 Sudoeste 22 Sudoeste 0 -- -- 88
2019-11-27 22:00:00 11.9 10 Sudoeste 18 Sudoeste 0 -- -- 89
2019-11-27 21:00:00 12.7 12 Sudoeste 19 Sudoeste 0 -- -- 84
2019-11-27 20:00:00 13.5 14 Sudoeste 21 Sudoeste 0 -- -- 82
2019-11-27 19:00:00 13.5 14 Oeste 21 Oeste 0 -- -- 82
2019-11-27 18:00:00 14.9 12 Oeste 20 Oeste 0 -- -- 77
2019-11-27 17:00:00 15.7 13 Oeste 35 Oeste 0 -- -- 71
2019-11-27 16:00:00 17 18 Sudoeste 28 Oeste 0 -- -- 63
2019-11-27 15:00:00 16.8 19 Oeste 37 Sudoeste 0 -- -- 64
2019-11-27 14:00:00 17.1 21 Sudoeste 34 Sudoeste 0 -- -- 64
2019-11-27 06:00:00 12.1 13 Sudoeste 18 Sudoeste 0 -- -- 99
2019-11-27 05:00:00 11.9 12 Sudoeste 20 Sudoeste 0.2 -- -- 99
2019-11-27 04:00:00 12 12 Sudoeste 18 Oeste 0 -- -- 99
2019-11-27 03:00:00 12.6 11 Oeste 26 Oeste 0 -- -- 99
2019-11-27 02:00:00 13.4 18 Sudoeste 27 Sudoeste 0 -- -- 99
2019-11-27 01:00:00 13.6 21 Sudoeste 40 Sudoeste 0.4 -- -- 98
2019-11-27 00:00:00 13.9 18 Sudoeste 31 Sudoeste 0 -- -- 97
2019-11-26 23:00:00 13.7 19 Sudoeste 30 Sudoeste 0 -- -- 97
2019-11-26 22:00:00 14.1 19 Sudoeste 34 Sudoeste 0 -- -- 97
2019-11-26 21:00:00 14.6 20 Sudoeste 33 Sudoeste 0 -- -- 97
2019-11-26 20:00:00 15 22 Sudoeste 38 Sudoeste 0.4 -- -- 97
2019-11-26 19:00:00 15 26 Sudoeste 46 Sudoeste 2.6 -- -- 99
2019-11-26 18:00:00 15 27 Sudoeste 48 Sudoeste 1.2 -- -- 96
2019-11-26 17:00:00 16.6 33 Sudoeste 47 Sudoeste 0.8 -- -- 84
2019-11-26 16:00:00 16.8 30 Sudoeste 51 Sudoeste 0.2 -- -- 86
2019-11-26 15:00:00 18 34 Sudoeste 57 Sudoeste 0 -- -- 77
2019-11-26 14:00:00 18 32 Sudoeste 50 Sudoeste 0 -- -- 80
2019-11-26 13:00:00 16.9 27 Sudoeste 43 Sudoeste 0 -- -- 89
2019-11-26 12:00:00 16.2 27 Sudoeste 44 Sudoeste 0 -- -- 92
2019-11-26 11:00:00 15.9 27 Sudoeste 39 Sudoeste 0 -- -- 94
2019-11-26 10:00:00 15.4 26 Sudoeste 39 Sudoeste 0 -- -- 99
2019-11-26 09:00:00 14.6 24 Sudoeste 36 Sudoeste 0 -- -- 100
2019-11-26 08:00:00 14.5 19 Sudoeste 30 Sudoeste 0.2 -- -- 100
2019-11-26 07:00:00 14.6 19 Sudoeste 30 Sur 0 -- -- 100
2019-11-26 06:00:00 14.5 19 Sudoeste 31 Sur 0.4 -- -- 100
2019-11-26 05:00:00 14.4 22 Sudoeste 31 Sur 0.2 -- -- 100
2019-11-26 04:00:00 14.1 16 Sudoeste 27 Sudoeste 0 -- -- 99
2019-11-26 03:00:00 13.9 13 Sur 25 Sudoeste 0 -- -- 99
2019-11-26 02:00:00 14 16 Sudoeste 23 Sudoeste 0 -- -- 97
2019-11-26 01:00:00 13.7 13 Sudoeste 19 Sur 0 -- -- 96
2019-11-26 00:00:00 12.9 6 Sudoeste 12 Sudoeste 0 -- -- 97
2019-11-25 23:00:00 13.4 6 Sudoeste 13 Sudoeste 0 -- -- 95
2019-11-25 22:00:00 13.5 7 Sudoeste 14 Sudoeste 0 -- -- 93
2019-11-25 21:00:00 14.3 9 Sudoeste 17 Sudoeste 0 -- -- 90
2019-11-25 20:00:00 15 10 Oeste 19 Sudoeste 0 -- -- 86
2019-11-25 19:00:00 16.2 12 Sudoeste 18 Sudoeste 0 -- -- 81
2019-11-25 18:00:00 17.2 8 Sudoeste 19 Oeste 0 -- -- 77
2019-11-25 17:00:00 18.3 11 Oeste 27 Sudoeste 0 -- -- 71
2019-11-25 16:00:00 19.8 14 Oeste 26 Oeste 0 -- -- 66
2019-11-25 15:00:00 19.5 17 Oeste 32 Sudoeste 0 -- -- 67
2019-11-25 14:00:00 18.6 15 Oeste 31 Oeste 0.2 -- -- 77
2019-11-25 13:00:00 18.8 17 Oeste 29 Sudoeste 0 -- -- 73
2019-11-25 12:00:00 17.6 17 Sudoeste 24 Sudoeste 0 -- -- 83
2019-11-25 11:00:00 15.4 13 Oeste 31 Sudoeste 0 -- -- 100
2019-11-25 10:00:00 14.9 14 Sudoeste 31 Sudoeste 0 -- -- 100
2019-11-25 09:00:00 14.6 19 Sudoeste 36 Sudoeste 0 -- -- 100
2019-11-25 08:00:00 14.3 26 Sudoeste 44 Sudoeste 0 -- -- 100
2019-11-25 07:00:00 14.2 30 Sudoeste 48 Sudoeste 0 -- -- 99
2019-11-25 06:00:00 14.1 32 Sudoeste 47 Sudoeste 0.2 -- -- 99
2019-11-25 05:00:00 13.8 32 Sudoeste 46 Sudoeste 0.4 -- -- 99
2019-11-25 04:00:00 13.2 32 Sudoeste 48 Sudoeste 0 -- -- 99
2019-11-25 03:00:00 12.7 31 Sudoeste 46 Sudoeste 0 -- -- 99
2019-11-25 02:00:00 12.4 32 Sudoeste 50 Sur 0 -- -- 98
2019-11-25 01:00:00 12.2 28 Sudoeste 42 Sudoeste 0 -- -- 98
2019-11-25 00:00:00 12 28 Sudoeste 39 Sudoeste 0 -- -- 97
2019-11-24 23:00:00 12.2 27 Sudoeste 41 Sudoeste 0 -- -- 96
2019-11-24 22:00:00 13 23 Sudoeste 39 Sudoeste 0 -- -- 88
2019-11-24 21:00:00 13.3 22 Sudoeste 29 Sudoeste 0 -- -- 84
2019-11-24 20:00:00 13.1 15 Sudoeste 24 Sudoeste 0 -- -- 85
2019-11-24 19:00:00 13.1 14 Sudoeste 24 Sudoeste 0 -- -- 84
2019-11-24 18:00:00 13.9 13 Sudoeste 24 Sudoeste 0 -- -- 79
2019-11-24 17:00:00 14.3 14 Sudoeste 25 Sudoeste 0 -- -- 74
2019-11-24 16:00:00 14.6 14 Sudoeste 24 Sudoeste 0 -- -- 74
2019-11-24 15:00:00 14.2 18 Sudoeste 31 Sudoeste 0 -- -- 75
2019-11-24 14:00:00 15.2 18 Sudoeste 27 Sudoeste 0 -- -- 69
2019-11-24 13:00:00 14.5 15 Sudoeste 26 Sudoeste 0 -- -- 74
2019-11-24 12:00:00 12.6 14 Sudoeste 22 Sudoeste 0 -- -- 83
2019-11-24 11:00:00 10.8 15 Sudoeste 22 Sudoeste 0 -- -- 88
2019-11-24 10:00:00 9.3 9 Sudoeste 16 Sudoeste 0 -- -- 94
2019-11-24 09:00:00 7.7 9 Sur 13 Sur 0 -- -- 97
2019-11-24 08:00:00 7 10 Sur 17 Sudoeste 0 -- -- 98
2019-11-24 07:00:00 7.2 8 Sudoeste 14 Sudoeste 0 -- -- 97
2019-11-24 06:00:00 7.1 8 Sudoeste 12 Sudoeste 0 -- -- 96
2019-11-24 05:00:00 7.5 6 Sudoeste 13 Sudoeste 0 -- -- 95
2019-11-24 04:00:00 7.4 5 Sudoeste 11 Oeste 0 -- -- 95
2019-11-24 03:00:00 7.5 8 Sudoeste 11 Sudoeste 0 -- -- 94
2019-11-24 02:00:00 7.6 6 Sudoeste 10 Oeste 0 -- -- 94
2019-11-24 01:00:00 7.9 6 Noroeste 15 Oeste 0 -- -- 92
2019-11-24 00:00:00 8.5 9 Oeste 16 Oeste 0 -- -- 90
2019-11-23 23:00:00 9 13 Sudoeste 20 Oeste 0 -- -- 87
2019-11-23 22:00:00 8.8 9 Oeste 14 Oeste 0 -- -- 87
2019-11-23 21:00:00 9 6 Oeste 18 Oeste 0 -- -- 88
2019-11-23 20:00:00 10.2 9 Oeste 18 Oeste 0 -- -- 82
2019-11-23 19:00:00 11.2 6 Oeste 9 Oeste 0 -- -- 81
2019-11-23 18:00:00 12 5 Noroeste 21 Noroeste 0 -- -- 77
2019-11-23 17:00:00 13.3 13 Noroeste 36 Noroeste 0 -- -- 72
2019-11-23 16:00:00 15.4 18 Noroeste 33 Oeste 0 -- -- 58
2019-11-23 15:00:00 15.2 20 Noroeste 40 Oeste 0 -- -- 58
2019-11-23 14:00:00 14.8 23 Noroeste 36 Oeste 0 -- -- 60
2019-11-23 13:00:00 13.5 18 Noroeste 41 Noroeste 0 -- -- 69
2019-11-23 12:00:00 13.3 21 Noroeste 36 Noroeste 0 -- -- 70
2019-11-23 11:00:00 12.6 13 Noroeste 31 Oeste 0 -- -- 74
2019-11-23 10:00:00 10.8 18 Oeste 32 Oeste 0 -- -- 85
2019-11-23 09:00:00 9.4 18 Oeste 29 Oeste 0 -- -- 92
2019-11-23 08:00:00 9 18 Oeste 28 Oeste 0 -- -- 92
2019-11-23 07:00:00 9.2 14 Oeste 29 Oeste 0 -- -- 90
2019-11-23 06:00:00 9.8 14 Oeste 26 Noroeste 0 -- -- 90
2019-11-23 05:00:00 10.4 18 Noroeste 35 Oeste 0 -- -- 85
2019-11-23 04:00:00 10.2 19 Oeste 34 Sudoeste 0 -- -- 89
2019-11-23 03:00:00 10.4 22 Oeste 46 Oeste 0 -- -- 86
2019-11-23 02:00:00 11.3 30 Oeste 51 Oeste 0 -- -- 85
2019-11-23 01:00:00 12 29 Oeste 62 Oeste 0 -- -- 81
2019-11-23 00:00:00 12.5 39 Oeste 58 Oeste 0 -- -- 83
2019-11-22 23:00:00 12.4 34 Sudoeste 53 Oeste 0 -- -- 82
2019-11-22 22:00:00 12.5 27 Sudoeste 47 Sudoeste 0.2 -- -- 84
2019-11-22 21:00:00 12.5 25 Sudoeste 54 Oeste 0.2 -- -- 84
2019-11-22 20:00:00 13.3 17 Oeste 40 Sudoeste 0.8 -- -- 86
2019-11-22 19:00:00 14.1 27 Oeste 55 Oeste 0 -- -- 76
2019-11-22 18:00:00 14.7 22 Sudoeste 48 Oeste 0 -- -- 71
2019-11-22 17:00:00 15.9 31 Oeste 55 Oeste 0 -- -- 73
2019-11-22 16:00:00 17 24 Oeste 50 Oeste 0 -- -- 71
2019-11-22 15:00:00 15.8 19 Oeste 36 Oeste 1.6 -- -- 94
2019-11-22 14:00:00 15.5 28 Oeste 62 Sudoeste 3.4 -- -- 98
2019-11-22 13:00:00 15.2 45 Sudoeste 68 Sur 0.6 -- -- 99
2019-11-22 12:00:00 14.2 44 Sudoeste 67 Sudoeste 0.6 -- -- 98
2019-11-22 11:00:00 13.8 47 Sudoeste 69 Sudoeste 0.8 -- -- 98
2019-11-22 10:00:00 13.5 47 Sudoeste 73 Sudoeste 1.8 -- -- 98
2019-11-22 09:00:00 13.1 44 Sudoeste 62 Sur 0.6 -- -- 97
2019-11-22 08:00:00 12.7 36 Sudoeste 51 Sur 0.2 -- -- 97
2019-11-22 07:00:00 11.8 31 Sur 44 Sur 0.4 -- -- 98
2019-11-22 06:00:00 11.8 33 Sur 45 Sur 1.2 -- -- 98
2019-11-22 05:00:00 11.5 26 Sudoeste 41 Sur 0.2 -- -- 97
2019-11-22 04:00:00 11.4 22 Sur 31 Sur 0.2 -- -- 98
2019-11-22 03:00:00 11.5 14 Sudoeste 25 Sudoeste 0 -- -- 98
2019-11-22 02:00:00 11.5 17 Sudoeste 29 Sur 0 -- -- 99
2019-11-22 01:00:00 11.3 17 Sudoeste 26 Sur 0 -- -- 99
2019-11-22 00:00:00 11.1 15 Sudoeste 22 Sur 0 -- -- 99
2019-11-21 23:00:00 11 17 Sudoeste 22 Sudoeste 0 -- -- 98
2019-11-21 22:00:00 11.4 14 Sudoeste 20 Sur 0 -- -- 96
2019-11-21 21:00:00 11.8 14 Sudoeste 19 Sudoeste 0 -- -- 95
2019-11-21 20:00:00 12.4 9 Sudoeste 13 Sudoeste 0 -- -- 91
2019-11-21 19:00:00 12.6 7 Sudoeste 12 Sudoeste 0 -- -- 92
2019-11-21 18:00:00 13.5 9 Sudoeste 15 Oeste 0 -- -- 86
2019-11-21 17:00:00 14.3 8 Oeste 18 Sudoeste 0 -- -- 82
2019-11-21 16:00:00 15.8 12 Sudoeste 20 Sudoeste 0 -- -- 77
2019-11-21 15:00:00 14.6 10 Sudoeste 20 Sudoeste 0 -- -- 82
2019-11-21 14:00:00 13.7 14 Sudoeste 28 Sur 0 -- -- 88
2019-11-21 13:00:00 13.4 13 Sudoeste 20 Sudoeste 0 -- -- 95
2019-11-21 12:00:00 12.4 14 Sudoeste 24 Sudoeste 0 -- -- 97
2019-11-21 11:00:00 11.9 18 Sudoeste 24 Sur 0 -- -- 99
2019-11-21 10:00:00 11.5 15 Sudoeste 20 Sudoeste 0.2 -- -- 100
2019-11-21 09:00:00 10.8 10 Sudoeste 26 Sudoeste 1.8 -- -- 100
2019-11-21 08:00:00 11 16 Sudoeste 28 Sudoeste 2.6 -- -- 100
2019-11-21 07:00:00 11 21 Sudoeste 31 Sudoeste 0.4 -- -- 100
2019-11-21 06:00:00 10.8 23 Sudoeste 33 Sudoeste 0.2 -- -- 100
2019-11-21 05:00:00 10.5 15 Sudoeste 22 Sudoeste 0 -- -- 100
2019-11-21 04:00:00 10.6 13 Sudoeste 24 Sudoeste 0 -- -- 100
2019-11-21 03:00:00 10.5 15 Sudoeste 27 Sudoeste 0 -- -- 100
2019-11-21 02:00:00 10.4 19 Sudoeste 28 Sudoeste 0 -- -- 100
2019-11-21 01:00:00 10.2 18 Sudoeste 29 Sudoeste 0 -- -- 99
2019-11-21 00:00:00 10.2 23 Sudoeste 33 Sudoeste 0.2 -- -- 98
2019-11-20 23:00:00 10 13 Sudoeste 21 Sudoeste 0 -- -- 97
2019-11-20 22:00:00 9.8 13 Sudoeste 17 Sur 0 -- -- 97
2019-11-20 21:00:00 9.5 8 Sudoeste 18 Sur 0 -- -- 96
2019-11-20 20:00:00 9.9 7 Sudoeste 14 Sur 3 -- -- 96
2019-11-20 19:00:00 10.4 3 Noroeste 24 Norte 10.2 -- -- 95
2019-11-20 18:00:00 12.7 7 Sur 18 Sudoeste 0.2 -- -- 77
2019-11-20 17:00:00 14.7 13 Oeste 28 Oeste 0 -- -- 65
2019-11-20 16:00:00 14.5 19 Oeste 31 Sudoeste 0 -- -- 65
2019-11-20 15:00:00 14.6 23 Sudoeste 33 Sudoeste 0 -- -- 72
2019-11-20 14:00:00 12 17 Sudoeste 37 Sur 0 -- -- 90
2019-11-20 13:00:00 11.9 24 Sudoeste 39 Sur 0 -- -- 88
2019-11-20 12:00:00 9.9 10 Sudoeste 26 Sudoeste 0 -- -- 93
2019-11-20 11:00:00 9 5 Sudoeste 27 Sudeste 0 -- -- 93
2019-11-20 10:00:00 8.6 4 Sudeste 31 Sur 0.4 -- -- 94
2019-11-20 09:00:00 7.7 14 Sudeste 33 Sudeste 0.4 -- -- 96
2019-11-20 08:00:00 7.7 9 Sudeste 24 Sudoeste 4.4 -- -- 96
2019-11-20 07:00:00 7.8 7 Noroeste 12 Noroeste 1.2 -- -- 95
2019-11-20 06:00:00 8.5 0 Calma 12 Sudeste 0.6 -- -- 89
2019-11-20 05:00:00 8.8 2 Noroeste 9 Sudoeste 0.6 -- -- 89
2019-11-20 04:00:00 10 7 Sudoeste 15 Sudoeste 0 -- -- 78
2019-11-20 03:00:00 9.9 5 Sur 8 Sudoeste 0 -- -- 79
2019-11-20 02:00:00 9.5 4 Sudoeste 9 Sudeste 0 -- -- 77
2019-11-20 01:00:00 9.1 7 Sudeste 12 Sudeste 0 -- -- 80
2019-11-20 00:00:00 8.9 2 Sudeste 10 Sudoeste 0 -- -- 80
2019-11-19 23:00:00 8.5 6 Sudeste 9 Sudeste 0 -- -- 78
2019-11-19 22:00:00 9.3 2 Sur 6 Sur 0 -- -- 75
2019-11-19 21:00:00 9.6 6 Sudoeste 9 Sur 0 -- -- 72
2019-11-19 20:00:00 9.2 6 Sur 11 Sur 0 -- -- 75
2019-11-19 19:00:00 9.7 6 Sudoeste 10 Sudoeste 0 -- -- 72
2019-11-19 18:00:00 11.1 6 Sudoeste 14 Oeste 0 -- -- 65
2019-11-19 17:00:00 12 10 Sudoeste 14 Sudoeste 0 -- -- 61
2019-11-19 16:00:00 12.1 10 Sudoeste 14 Sudoeste 0 -- -- 65
2019-11-19 15:00:00 12.3 7 Sudoeste 14 Sudoeste 0 -- -- 72
2019-11-19 14:00:00 11.7 11 Sudoeste 15 Oeste 0 -- -- 73
2019-11-19 13:00:00 11.6 9 Sudoeste 14 Sudoeste 0 -- -- 73
2019-11-19 12:00:00 11.1 10 Sudoeste 15 Sur 0 -- -- 74
2019-11-19 11:00:00 9 5 Sudoeste 10 Oeste 0 -- -- 87
2019-11-19 10:00:00 6.7 3 Noroeste 6 Noroeste 0 -- -- 95
2019-11-19 09:00:00 5.6 2 Sudoeste 6 Sudoeste 0 -- -- 95
2019-11-19 08:00:00 5.4 5 Oeste 11 Oeste 0 -- -- 95
2019-11-19 07:00:00 5.4 5 Sudoeste 8 Sur 0 -- -- 96
2019-11-19 06:00:00 5.2 4 Sur 6 Sur 0 -- -- 95
2019-11-19 05:00:00 5.9 4 Sur 10 Sudeste 0 -- -- 92
2019-11-19 04:00:00 6.7 4 Sur 10 Sudoeste 0 -- -- 90
2019-11-19 03:00:00 6.7 9 Sudoeste 12 Oeste 0 -- -- 91
2019-11-19 02:00:00 6.5 8 Sudoeste 12 Sudoeste 0 -- -- 91
2019-11-19 01:00:00 6.4 6 Sur 7 Sur 0 -- -- 91
2019-11-19 00:00:00 7.4 5 Sur 10 Sur 0 -- -- 88
2019-11-18 23:00:00 7.7 5 Sudoeste 8 Sudoeste 0 -- -- 85
2019-11-18 22:00:00 8.3 4 Sudoeste 9 Noroeste 0 -- -- 81
2019-11-18 21:00:00 9 8 Noroeste 13 Oeste 0 -- -- 76
2019-11-18 20:00:00 10.2 6 Oeste 9 Oeste 0 -- -- 70
2019-11-18 19:00:00 11.1 5 Noroeste 10 Oeste 0 -- -- 67
2019-11-18 18:00:00 13.1 7 Noroeste 17 Noroeste 0 -- -- 61
2019-11-18 17:00:00 15.3 8 Noroeste 16 Norte 0 -- -- 54
2019-11-18 16:00:00 14.9 13 Norte 22 Norte 0 -- -- 53
2019-11-18 15:00:00 15.1 8 Noroeste 17 Norte 0 -- -- 56
2019-11-18 14:00:00 13.9 12 Norte 25 Nordeste 0 -- -- 61
2019-11-18 13:00:00 13 7 Norte 19 Norte 0 -- -- 67
2019-11-18 12:00:00 11.8 4 Oeste 14 Sudoeste 0 -- -- 76
2019-11-18 11:00:00 10 9 Oeste 14 Oeste 0 -- -- 86
2019-11-18 10:00:00 7.9 9 Oeste 12 Sudoeste 0 -- -- 99
2019-11-18 09:00:00 6 7 Oeste 10 Oeste 0 -- -- 99
2019-11-18 08:00:00 5.5 7 Noroeste 17 Oeste 0 -- -- 99
2019-11-18 07:00:00 5.5 8 Noroeste 16 Oeste 0 -- -- 98
2019-11-18 06:00:00 5.4 7 Oeste 16 Oeste 0 -- -- 97
2019-11-18 05:00:00 6.2 11 Noroeste 22 Noroeste 0 -- -- 96
2019-11-18 04:00:00 6.3 12 Noroeste 22 Noroeste 0 -- -- 94
2019-11-18 03:00:00 6.6 15 Noroeste 27 Noroeste 0 -- -- 93
2019-11-18 02:00:00 7.2 15 Noroeste 29 Noroeste 0 -- -- 92
2019-11-18 01:00:00 8.1 12 Noroeste 23 Noroeste 0 -- -- 89
2019-11-18 00:00:00 10.1 10 Noroeste 31 Noroeste 0 -- -- 92
2019-11-17 23:00:00 11.7 22 Noroeste 36 Noroeste 0.6 -- -- 98
2019-11-17 22:00:00 12.7 16 Oeste 32 Sudoeste 1 -- -- 99
2019-11-17 21:00:00 12.6 21 Sudoeste 37 Oeste 0.2 -- -- 98
2019-11-17 20:00:00 12.7 22 Sudoeste 31 Sudoeste 0 -- -- 98
2019-11-17 19:00:00 12.7 19 Sudoeste 34 Oeste 0.2 -- -- 97
2019-11-17 18:00:00 13.3 24 Oeste 41 Oeste 1.6 -- -- 96
2019-11-17 17:00:00 14.1 22 Sudoeste 36 Sudoeste 0 -- -- 95
2019-11-17 16:00:00 15.3 23 Oeste 39 Sudoeste 0 -- -- 87
2019-11-17 15:00:00 15.3 21 Sudoeste 33 Oeste 0 -- -- 91
2019-11-17 14:00:00 13.6 17 Sudoeste 32 Oeste 0.2 -- -- 100
2019-11-17 13:00:00 12.9 19 Sudoeste 30 Sudoeste 0 -- -- 100
2019-11-17 12:00:00 11.6 21 Sudoeste 34 Sudoeste 0 -- -- 100
2019-11-17 11:00:00 10 26 Sudoeste 37 Sudoeste 0 -- -- 100
2019-11-17 10:00:00 9.1 24 Sudoeste 38 Sudoeste 0 -- -- 100
2019-11-17 09:00:00 8.4 24 Sudoeste 38 Sudoeste 0 -- -- 99
2019-11-17 08:00:00 7.8 26 Sudoeste 36 Sudoeste 0 -- -- 99
2019-11-17 07:00:00 7.3 21 Sudoeste 34 Sudoeste 0 -- -- 98
2019-11-17 06:00:00 7.2 21 Sudoeste 32 Sudoeste 0.2 -- -- 98
2019-11-17 05:00:00 7.1 17 Sudoeste 25 Sudoeste 0 -- -- 95
2019-11-17 04:00:00 7.7 14 Sudoeste 22 Sudoeste 0 -- -- 87
2019-11-17 03:00:00 7.2 7 Sudoeste 15 Sudoeste 0.2 -- -- 87
2019-11-17 02:00:00 7.8 8 Sudoeste 16 Sudoeste 0 -- -- 77
2019-11-17 01:00:00 7.8 6 Sudoeste 13 Sudoeste 0 -- -- 74
2019-11-17 00:00:00 7.6 7 Sudoeste 13 Sudoeste 0 -- -- 74
2019-11-16 23:00:00 7.2 6 Sur 13 Oeste 0 -- -- 73
2019-11-16 22:00:00 7 7 Oeste 11 Oeste 0 -- -- 72
2019-11-16 21:00:00 8 7 Sudoeste 12 Oeste 0 -- -- 67
2019-11-16 20:00:00 8.7 7 Oeste 15 Noroeste 0 -- -- 63
2019-11-16 19:00:00 9.9 9 Oeste 15 Oeste 0 -- -- 60
2019-11-16 18:00:00 12.4 10 Oeste 25 Oeste 0 -- -- 49
2019-11-16 17:00:00 14 14 Oeste 28 Oeste 0 -- -- 45
2019-11-16 16:00:00 13.8 13 Noroeste 26 Noroeste 0 -- -- 43
2019-11-16 15:00:00 13.8 8 Oeste 19 Oeste 0 -- -- 43
2019-11-16 14:00:00 13.5 6 Oeste 14 Oeste 0 -- -- 49
2019-11-16 13:00:00 12 8 Oeste 14 Oeste 0 -- -- 54
2019-11-16 12:00:00 10.1 4 Noroeste 10 Noroeste 0 -- -- 61
2019-11-16 11:00:00 7.8 5 Oeste 9 Noroeste 0 -- -- 72
2019-11-16 10:00:00 5.2 3 Sur 8 Noroeste 0 -- -- 85
2019-11-16 09:00:00 2.8 4 Oeste 8 Oeste 0 -- -- 95
2019-11-16 08:00:00 1.6 5 Oeste 8 Oeste 0 -- -- 95
2019-11-16 07:00:00 2 8 Oeste 11 Oeste 0 -- -- 95
2019-11-16 06:00:00 2.2 8 Oeste 10 Oeste 0 -- -- 94
2019-11-16 05:00:00 2.3 6 Oeste 12 Noroeste 0 -- -- 93
2019-11-16 04:00:00 2.6 8 Oeste 13 Noroeste 0 -- -- 93
2019-11-16 03:00:00 2.7 5 Oeste 13 Oeste 0 -- -- 92
2019-11-16 02:00:00 3.1 6 Oeste 11 Oeste 0 -- -- 90
2019-11-16 01:00:00 3.4 7 Oeste 12 Oeste 0 -- -- 86
2019-11-16 00:00:00 4.3 6 Oeste 15 Noroeste 0 -- -- 80